sensor_id;sensor_type;location;lat;lon;timestamp;pressure;altitude;pressure_sealevel;temperature;humidity
70248;BME280;57641;51.416;5.506;2023-06-01T00:00:23;102329.97;;;21.66;44.64
70248;BME280;57641;51.416;5.506;2023-06-01T00:02:50;102336.28;;;21.73;44.54
70248;BME280;57641;51.416;5.506;2023-06-01T00:05:16;102327.53;;;21.71;44.53
70248;BME280;57641;51.416;5.506;2023-06-01T00:07:42;102327.53;;;21.71;44.69
70248;BME280;57641;51.416;5.506;2023-06-01T00:10:07;102320.53;;;21.62;45.05
70248;BME280;57641;51.416;5.506;2023-06-01T00:12:33;102327.81;;;21.62;45.17
70248;BME280;57641;51.416;5.506;2023-06-01T00:14:59;102322.22;;;21.48;45.46
70248;BME280;57641;51.416;5.506;2023-06-01T00:17:27;102327.75;;;21.26;45.87
70248;BME280;57641;51.416;5.506;2023-06-01T00:19:54;102326.63;;;21.35;45.56
70248;BME280;57641;51.416;5.506;2023-06-01T00:22:20;102319.97;;;21.37;45.83
70248;BME280;57641;51.416;5.506;2023-06-01T00:24:46;102327.53;;;21.42;45.62
70248;BME280;57641;51.416;5.506;2023-06-01T00:27:11;102323.94;;;21.20;46.26
70248;BME280;57641;51.416;5.506;2023-06-01T00:29:36;102314.53;;;21.08;46.42
70248;BME280;57641;51.416;5.506;2023-06-01T00:32:02;102328.91;;;20.94;46.78
70248;BME280;57641;51.416;5.506;2023-06-01T00:34:27;102320.59;;;20.95;47.02
70248;BME280;57641;51.416;5.506;2023-06-01T00:36:53;102317.31;;;20.85;47.25
70248;BME280;57641;51.416;5.506;2023-06-01T00:39:18;102326.47;;;20.84;47.14
70248;BME280;57641;51.416;5.506;2023-06-01T00:41:44;102322.91;;;20.69;47.21
70248;BME280;57641;51.416;5.506;2023-06-01T00:44:09;102321.66;;;20.57;47.82
70248;BME280;57641;51.416;5.506;2023-06-01T00:46:36;102321.88;;;20.70;47.34
70248;BME280;57641;51.416;5.506;2023-06-01T00:49:02;102321.03;;;20.70;47.43
70248;BME280;57641;51.416;5.506;2023-06-01T00:51:27;102324.31;;;20.80;47.01
70248;BME280;57641;51.416;5.506;2023-06-01T00:53:57;102327.03;;;20.19;48.50
70248;BME280;57641;51.416;5.506;2023-06-01T00:56:22;102329.44;;;20.37;48.33
70248;BME280;57641;51.416;5.506;2023-06-01T00:58:48;102331.91;;;20.24;48.36
70248;BME280;57641;51.416;5.506;2023-06-01T01:01:14;102328.31;;;20.32;48.15
70248;BME280;57641;51.416;5.506;2023-06-01T01:03:49;102336.44;;;20.32;48.07
70248;BME280;57641;51.416;5.506;2023-06-01T01:09:21;102334.19;;;20.12;48.30
70248;BME280;57641;51.416;5.506;2023-06-01T01:11:59;102337.91;;;20.11;48.45
70248;BME280;57641;51.416;5.506;2023-06-01T01:14:31;102329.75;;;20.19;48.16
70248;BME280;57641;51.416;5.506;2023-06-01T01:17:13;102333.47;;;20.18;48.14
70248;BME280;57641;51.416;5.506;2023-06-01T01:20:03;102346.19;;;20.10;48.26
70248;BME280;57641;51.416;5.506;2023-06-01T01:30:28;102344.31;;;19.88;48.47
70248;BME280;57641;51.416;5.506;2023-06-01T01:33:03;102344.50;;;19.86;48.24
70248;BME280;57641;51.416;5.506;2023-06-01T01:35:30;102344.56;;;19.70;48.39
70248;BME280;57641;51.416;5.506;2023-06-01T01:37:57;102354.03;;;19.74;48.04
70248;BME280;57641;51.416;5.506;2023-06-01T01:40:23;102345.13;;;18.94;49.76
70248;BME280;57641;51.416;5.506;2023-06-01T01:42:50;102340.97;;;19.38;49.48
70248;BME280;57641;51.416;5.506;2023-06-01T01:45:17;102347.03;;;19.49;48.96
70248;BME280;57641;51.416;5.506;2023-06-01T01:47:51;102349.97;;;19.23;49.44
70248;BME280;57641;51.416;5.506;2023-06-01T01:50:22;102352.13;;;19.35;48.90
70248;BME280;57641;51.416;5.506;2023-06-01T01:52:51;102344.88;;;19.28;48.87
70248;BME280;57641;51.416;5.506;2023-06-01T01:55:20;102348.78;;;19.25;48.99
70248;BME280;57641;51.416;5.506;2023-06-01T01:57:50;102354.84;;;19.27;49.04
70248;BME280;57641;51.416;5.506;2023-06-01T02:00:17;102356.03;;;19.25;49.06
70248;BME280;57641;51.416;5.506;2023-06-01T02:02:45;102346.94;;;19.18;48.98
70248;BME280;57641;51.416;5.506;2023-06-01T02:05:11;102348.47;;;19.04;49.75
70248;BME280;57641;51.416;5.506;2023-06-01T02:07:36;102350.41;;;18.87;49.46
70248;BME280;57641;51.416;5.506;2023-06-01T02:10:02;102343.09;;;18.88;49.56
70248;BME280;57641;51.416;5.506;2023-06-01T02:12:27;102345.13;;;18.94;49.83
70248;BME280;57641;51.416;5.506;2023-06-01T02:14:53;102345.16;;;18.86;49.38
70248;BME280;57641;51.416;5.506;2023-06-01T02:17:18;102340.59;;;18.86;49.45
70248;BME280;57641;51.416;5.506;2023-06-01T02:19:43;102349.72;;;18.69;49.73
70248;BME280;57641;51.416;5.506;2023-06-01T02:22:09;102341.44;;;18.63;49.98
70248;BME280;57641;51.416;5.506;2023-06-01T02:24:35;102336.72;;;18.81;50.03
70248;BME280;57641;51.416;5.506;2023-06-01T02:27:00;102339.41;;;18.73;49.32
70248;BME280;57641;51.416;5.506;2023-06-01T02:29:27;102336.72;;;18.73;49.54
70248;BME280;57641;51.416;5.506;2023-06-01T02:31:53;102331.16;;;18.66;49.24
70248;BME280;57641;51.416;5.506;2023-06-01T02:34:18;102329.28;;;18.67;49.43
70248;BME280;57641;51.416;5.506;2023-06-01T02:36:44;102331.81;;;18.68;49.77
70248;BME280;57641;51.416;5.506;2023-06-01T02:39:10;102342.63;;;18.68;49.58
70248;BME280;57641;51.416;5.506;2023-06-01T02:41:35;102345.16;;;18.70;49.26
70248;BME280;57641;51.416;5.506;2023-06-01T02:44:01;102345.63;;;18.41;49.91
70248;BME280;57641;51.416;5.506;2023-06-01T02:46:26;102345.50;;;18.50;49.76
70248;BME280;57641;51.416;5.506;2023-06-01T02:48:52;102349.72;;;18.45;50.05
70248;BME280;57641;51.416;5.506;2023-06-01T02:51:18;102346.31;;;18.43;50.26
70248;BME280;57641;51.416;5.506;2023-06-01T02:53:46;102335.69;;;18.49;50.16
70248;BME280;57641;51.416;5.506;2023-06-01T02:56:12;102334.69;;;18.42;50.12
70248;BME280;57641;51.416;5.506;2023-06-01T02:58:38;102337.41;;;18.50;50.17
70248;BME280;57641;51.416;5.506;2023-06-01T03:01:04;102336.69;;;18.32;50.49
70248;BME280;57641;51.416;5.506;2023-06-01T03:03:30;102341.72;;;18.11;51.14
70248;BME280;57641;51.416;5.506;2023-06-01T03:05:56;102344.97;;;18.23;50.73
70248;BME280;57641;51.416;5.506;2023-06-01T03:08:22;102347.28;;;18.01;50.96
70248;BME280;57641;51.416;5.506;2023-06-01T03:10:50;102347.47;;;18.16;50.45
70248;BME280;57641;51.416;5.506;2023-06-01T03:13:16;102352.88;;;18.08;50.65
70248;BME280;57641;51.416;5.506;2023-06-01T03:15:41;102352.19;;;18.14;50.54
70248;BME280;57641;51.416;5.506;2023-06-01T03:18:07;102351.16;;;17.91;50.65
70248;BME280;57641;51.416;5.506;2023-06-01T03:20:34;102357.25;;;18.01;50.66
70248;BME280;57641;51.416;5.506;2023-06-01T03:23:00;102358.59;;;18.05;50.63
70248;BME280;57641;51.416;5.506;2023-06-01T03:25:26;102357.88;;;17.87;50.62
70248;BME280;57641;51.416;5.506;2023-06-01T03:27:52;102358.00;;;17.77;51.06
70248;BME280;57641;51.416;5.506;2023-06-01T03:30:17;102358.50;;;17.72;50.87
70248;BME280;57641;51.416;5.506;2023-06-01T03:32:44;102361.19;;;17.72;50.95
70248;BME280;57641;51.416;5.506;2023-06-01T03:35:11;102358.28;;;17.66;51.20
70248;BME280;57641;51.416;5.506;2023-06-01T03:37:39;102359.63;;;17.62;51.03
70248;BME280;57641;51.416;5.506;2023-06-01T03:40:06;102350.75;;;17.78;51.14
70248;BME280;57641;51.416;5.506;2023-06-01T03:42:41;102356.88;;;17.20;52.26
70248;BME280;57641;51.416;5.506;2023-06-01T03:45:15;102359.00;;;17.42;51.87
70248;BME280;57641;51.416;5.506;2023-06-01T03:47:44;102356.88;;;17.54;51.55
70248;BME280;57641;51.416;5.506;2023-06-01T03:50:10;102365.63;;;17.56;51.62
70248;BME280;57641;51.416;5.506;2023-06-01T03:52:37;102363.03;;;17.38;52.13
70248;BME280;57641;51.416;5.506;2023-06-01T03:55:04;102362.19;;;17.38;52.13
70248;BME280;57641;51.416;5.506;2023-06-01T03:57:37;102358.69;;;17.45;51.47
70248;BME280;57641;51.416;5.506;2023-06-01T04:00:04;102358.38;;;17.56;51.69
70248;BME280;57641;51.416;5.506;2023-06-01T04:03:03;102364.63;;;17.57;51.42
70248;BME280;57641;51.416;5.506;2023-06-01T04:05:32;102364.91;;;17.38;52.32
70248;BME280;57641;51.416;5.506;2023-06-01T04:07:57;102363.19;;;17.37;51.75
70248;BME280;57641;51.416;5.506;2023-06-01T04:10:23;102366.97;;;17.52;51.34
70248;BME280;57641;51.416;5.506;2023-06-01T04:12:49;102373.31;;;17.60;51.63
70248;BME280;57641;51.416;5.506;2023-06-01T04:15:16;102375.50;;;17.65;51.14
70248;BME280;57641;51.416;5.506;2023-06-01T04:17:43;102363.91;;;17.47;51.64
70248;BME280;57641;51.416;5.506;2023-06-01T04:20:13;102364.75;;;17.47;51.63
70248;BME280;57641;51.416;5.506;2023-06-01T04:22:41;102362.56;;;17.43;51.36
70248;BME280;57641;51.416;5.506;2023-06-01T04:25:11;102369.81;;;17.50;51.26
70248;BME280;57641;51.416;5.506;2023-06-01T04:27:42;102376.56;;;17.46;51.49
70248;BME280;57641;51.416;5.506;2023-06-01T04:30:11;102372.91;;;17.55;51.38
70248;BME280;57641;51.416;5.506;2023-06-01T04:32:37;102377.72;;;17.69;50.89
70248;BME280;57641;51.416;5.506;2023-06-01T04:35:06;102378.38;;;17.71;50.92
70248;BME280;57641;51.416;5.506;2023-06-01T04:37:33;102380.72;;;17.66;51.05
70248;BME280;57641;51.416;5.506;2023-06-01T04:40:00;102390.00;;;17.72;51.01
70248;BME280;57641;51.416;5.506;2023-06-01T04:42:26;102382.81;;;17.81;50.47
70248;BME280;57641;51.416;5.506;2023-06-01T04:44:53;102384.66;;;17.80;50.83
70248;BME280;57641;51.416;5.506;2023-06-01T04:47:18;102388.22;;;17.81;50.69
70248;BME280;57641;51.416;5.506;2023-06-01T04:49:46;102383.31;;;17.84;50.06
70248;BME280;57641;51.416;5.506;2023-06-01T04:52:12;102385.22;;;17.92;50.15
70248;BME280;57641;51.416;5.506;2023-06-01T04:54:46;102387.38;;;17.80;50.37
70248;BME280;57641;51.416;5.506;2023-06-01T04:57:12;102384.53;;;17.90;49.75
70248;BME280;57641;51.416;5.506;2023-06-01T04:59:40;102376.94;;;17.93;49.51
70248;BME280;57641;51.416;5.506;2023-06-01T05:02:07;102387.22;;;17.90;49.43
70248;BME280;57641;51.416;5.506;2023-06-01T05:04:32;102388.28;;;17.97;49.37
70248;BME280;57641;51.416;5.506;2023-06-01T05:06:58;102379.47;;;17.87;49.61
70248;BME280;57641;51.416;5.506;2023-06-01T05:09:23;102383.31;;;17.84;49.19
70248;BME280;57641;51.416;5.506;2023-06-01T05:11:48;102383.19;;;17.94;49.19
70248;BME280;57641;51.416;5.506;2023-06-01T05:14:14;102378.31;;;17.97;48.75
70248;BME280;57641;51.416;5.506;2023-06-01T05:16:40;102387.00;;;17.75;49.38
70248;BME280;57641;51.416;5.506;2023-06-01T05:19:05;102379.69;;;17.59;49.39
70248;BME280;57641;51.416;5.506;2023-06-01T05:21:31;102383.69;;;17.55;49.44
70248;BME280;57641;51.416;5.506;2023-06-01T05:23:59;102381.75;;;17.65;49.57
70248;BME280;57641;51.416;5.506;2023-06-01T05:26:24;102379.91;;;17.74;49.17
70248;BME280;57641;51.416;5.506;2023-06-01T05:28:50;102380.06;;;17.64;49.40
70248;BME280;57641;51.416;5.506;2023-06-01T05:31:16;102381.44;;;17.77;49.45
70248;BME280;57641;51.416;5.506;2023-06-01T05:33:42;102376.94;;;17.85;49.15
70248;BME280;57641;51.416;5.506;2023-06-01T05:36:07;102380.31;;;17.95;49.25
70248;BME280;57641;51.416;5.506;2023-06-01T05:38:33;102373.31;;;17.60;49.80
70248;BME280;57641;51.416;5.506;2023-06-01T05:40:58;102376.03;;;17.43;50.13
70248;BME280;57641;51.416;5.506;2023-06-01T05:43:24;102378.50;;;17.62;49.54
70248;BME280;57641;51.416;5.506;2023-06-01T05:45:49;102372.28;;;17.61;49.58
70248;BME280;57641;51.416;5.506;2023-06-01T05:48:15;102377.00;;;17.59;49.55
70248;BME280;57641;51.416;5.506;2023-06-01T05:50:41;102377.06;;;17.76;49.20
70248;BME280;57641;51.416;5.506;2023-06-01T05:53:10;102374.25;;;17.93;48.99
70248;BME280;57641;51.416;5.506;2023-06-01T05:55:36;102377.47;;;17.97;49.09
70248;BME280;57641;51.416;5.506;2023-06-01T05:58:01;102378.31;;;17.97;49.21
70248;BME280;57641;51.416;5.506;2023-06-01T06:00:27;102376.47;;;18.06;48.44
70248;BME280;57641;51.416;5.506;2023-06-01T06:02:52;102370.91;;;18.07;48.72
70248;BME280;57641;51.416;5.506;2023-06-01T06:05:18;102376.13;;;18.01;48.57
70248;BME280;57641;51.416;5.506;2023-06-01T06:07:43;102376.13;;;18.09;48.93
70248;BME280;57641;51.416;5.506;2023-06-01T06:10:12;102377.31;;;18.06;49.20
70248;BME280;57641;51.416;5.506;2023-06-01T06:12:38;102381.72;;;18.15;48.60
70248;BME280;57641;51.416;5.506;2023-06-01T06:15:04;102382.72;;;18.06;48.62
70248;BME280;57641;51.416;5.506;2023-06-01T06:17:30;102381.31;;;17.86;48.93
70248;BME280;57641;51.416;5.506;2023-06-01T06:19:55;102391.19;;;18.28;48.04
70248;BME280;57641;51.416;5.506;2023-06-01T06:22:21;102382.38;;;18.01;48.12
70248;BME280;57641;51.416;5.506;2023-06-01T06:24:46;102383.66;;;17.81;49.20
70248;BME280;57641;51.416;5.506;2023-06-01T06:27:12;102390.41;;;17.85;49.16
70248;BME280;57641;51.416;5.506;2023-06-01T06:29:38;102389.31;;;17.62;49.47
70248;BME280;57641;51.416;5.506;2023-06-01T06:32:04;102388.34;;;17.71;49.85
70248;BME280;57641;51.416;5.506;2023-06-01T06:34:30;102390.41;;;17.85;49.39
70248;BME280;57641;51.416;5.506;2023-06-01T06:37:04;102389.75;;;17.57;49.64
70248;BME280;57641;51.416;5.506;2023-06-01T06:39:30;102392.28;;;17.93;49.29
70248;BME280;57641;51.416;5.506;2023-06-01T06:41:55;102385.81;;;17.69;49.87
70248;BME280;57641;51.416;5.506;2023-06-01T06:44:20;102391.00;;;17.63;49.79
70248;BME280;57641;51.416;5.506;2023-06-01T06:46:46;102385.47;;;17.72;50.32
70248;BME280;57641;51.416;5.506;2023-06-01T06:49:11;102387.03;;;17.83;49.74
70248;BME280;57641;51.416;5.506;2023-06-01T06:51:37;102395.81;;;17.85;49.52
70248;BME280;57641;51.416;5.506;2023-06-01T06:54:03;102406.81;;;17.92;49.58
70248;BME280;57641;51.416;5.506;2023-06-01T06:56:31;102392.19;;;17.60;49.92
70248;BME280;57641;51.416;5.506;2023-06-01T06:58:56;102395.72;;;18.03;49.55
70248;BME280;57641;51.416;5.506;2023-06-01T07:01:22;102400.66;;;18.24;48.91
70248;BME280;57641;51.416;5.506;2023-06-01T07:03:53;102403.66;;;18.12;48.67
70248;BME280;57641;51.416;5.506;2023-06-01T07:06:21;102400.31;;;18.27;48.61
70248;BME280;57641;51.416;5.506;2023-06-01T07:08:48;102397.13;;;18.39;48.39
70248;BME280;57641;51.416;5.506;2023-06-01T07:11:15;102395.78;;;18.43;48.06
70248;BME280;57641;51.416;5.506;2023-06-01T07:13:41;102397.78;;;18.41;48.02
70248;BME280;57641;51.416;5.506;2023-06-01T07:16:06;102391.94;;;18.54;47.78
70248;BME280;57641;51.416;5.506;2023-06-01T07:18:31;102394.09;;;18.34;48.04
70248;BME280;57641;51.416;5.506;2023-06-01T07:20:57;102395.06;;;18.25;48.85
70248;BME280;57641;51.416;5.506;2023-06-01T07:23:23;102381.97;;;18.63;47.94
70248;BME280;57641;51.416;5.506;2023-06-01T07:25:49;102391.09;;;18.62;47.68
70248;BME280;57641;51.416;5.506;2023-06-01T07:28:14;102384.16;;;18.83;47.38
70248;BME280;57641;51.416;5.506;2023-06-01T07:30:41;102380.97;;;18.64;47.17
70248;BME280;57641;51.416;5.506;2023-06-01T07:33:07;102384.81;;;18.93;47.37
70248;BME280;57641;51.416;5.506;2023-06-01T07:35:33;102389.06;;;18.64;47.99
70248;BME280;57641;51.416;5.506;2023-06-01T07:37:59;102388.34;;;18.45;47.46
70248;BME280;57641;51.416;5.506;2023-06-01T07:40:25;102382.97;;;18.62;48.25
70248;BME280;57641;51.416;5.506;2023-06-01T07:42:51;102381.97;;;18.79;47.31
70248;BME280;57641;51.416;5.506;2023-06-01T07:45:17;102385.66;;;19.10;47.13
70248;BME280;57641;51.416;5.506;2023-06-01T07:47:42;102381.28;;;18.93;47.29
70248;BME280;57641;51.416;5.506;2023-06-01T07:50:08;102388.34;;;19.10;47.05
70248;BME280;57641;51.416;5.506;2023-06-01T07:52:34;102389.34;;;19.25;46.29
70248;BME280;57641;51.416;5.506;2023-06-01T07:54:59;102389.19;;;19.11;46.25
70248;BME280;57641;51.416;5.506;2023-06-01T07:57:25;102395.59;;;19.34;46.17
70248;BME280;57641;51.416;5.506;2023-06-01T07:59:51;102396.06;;;19.54;45.33
70248;BME280;57641;51.416;5.506;2023-06-01T08:02:17;102396.53;;;19.65;44.87
70248;BME280;57641;51.416;5.506;2023-06-01T08:04:42;102389.41;;;19.64;45.68
70248;BME280;57641;51.416;5.506;2023-06-01T08:07:09;102396.25;;;19.83;45.43
70248;BME280;57641;51.416;5.506;2023-06-01T08:09:35;102387.97;;;19.85;44.22
70248;BME280;57641;51.416;5.506;2023-06-01T08:12:03;102392.06;;;20.11;44.04
70248;BME280;57641;51.416;5.506;2023-06-01T08:14:28;102389.66;;;20.16;44.46
70248;BME280;57641;51.416;5.506;2023-06-01T08:17:01;102389.59;;;20.02;44.46
70248;BME280;57641;51.416;5.506;2023-06-01T08:19:27;102386.81;;;19.79;44.64
70248;BME280;57641;51.416;5.506;2023-06-01T08:21:53;102386.25;;;19.92;44.82
70248;BME280;57641;51.416;5.506;2023-06-01T08:24:18;102388.50;;;20.11;44.50
70248;BME280;57641;51.416;5.506;2023-06-01T08:26:53;102378.50;;;20.19;44.44
70248;BME280;57641;51.416;5.506;2023-06-01T08:29:19;102381.75;;;20.38;44.16
70248;BME280;57641;51.416;5.506;2023-06-01T08:31:45;102379.66;;;20.48;43.53
70248;BME280;57641;51.416;5.506;2023-06-01T08:34:11;102382.06;;;20.43;43.73
70248;BME280;57641;51.416;5.506;2023-06-01T08:36:36;102382.31;;;20.25;43.32
70248;BME280;57641;51.416;5.506;2023-06-01T08:39:20;102377.91;;;20.32;43.87
70248;BME280;57641;51.416;5.506;2023-06-01T08:42:25;102369.00;;;20.46;43.74
70248;BME280;57641;51.416;5.506;2023-06-01T08:44:53;102367.28;;;20.68;43.41
70248;BME280;57641;51.416;5.506;2023-06-01T08:47:25;102369.09;;;20.76;43.34
70248;BME280;57641;51.416;5.506;2023-06-01T08:49:52;102361.88;;;20.68;42.53
70248;BME280;57641;51.416;5.506;2023-06-01T08:52:20;102375.38;;;20.00;43.65
70248;BME280;57641;51.416;5.506;2023-06-01T08:54:47;102373.50;;;20.54;43.14
70248;BME280;57641;51.416;5.506;2023-06-01T08:57:13;102372.81;;;20.75;41.64
70248;BME280;57641;51.416;5.506;2023-06-01T08:59:39;102362.75;;;20.83;41.38
70248;BME280;57641;51.416;5.506;2023-06-01T09:02:05;102359.53;;;21.02;41.79
70248;BME280;57641;51.416;5.506;2023-06-01T09:04:34;102358.44;;;20.74;41.81
70248;BME280;57641;51.416;5.506;2023-06-01T09:07:03;102356.13;;;21.00;41.81
70248;BME280;57641;51.416;5.506;2023-06-01T09:09:28;102351.09;;;21.12;41.69
70248;BME280;57641;51.416;5.506;2023-06-01T09:12:26;102353.53;;;20.55;41.96
70248;BME280;57641;51.416;5.506;2023-06-01T09:15:13;102353.53;;;20.92;42.29
70248;BME280;57641;51.416;5.506;2023-06-01T09:17:43;102352.03;;;21.04;42.00
70248;BME280;57641;51.416;5.506;2023-06-01T09:20:23;102353.16;;;21.10;42.33
70248;BME280;57641;51.416;5.506;2023-06-01T09:22:49;102346.53;;;21.42;40.83
70248;BME280;57641;51.416;5.506;2023-06-01T09:25:16;102350.53;;;21.02;41.25
70248;BME280;57641;51.416;5.506;2023-06-01T09:27:47;102335.69;;;21.42;40.68
70248;BME280;57641;51.416;5.506;2023-06-01T09:30:14;102334.63;;;21.58;40.56
70248;BME280;57641;51.416;5.506;2023-06-01T09:32:41;102334.72;;;21.64;40.93
70248;BME280;57641;51.416;5.506;2023-06-01T09:35:07;102328.94;;;21.67;40.40
70248;BME280;57641;51.416;5.506;2023-06-01T09:37:34;102332.38;;;21.76;40.63
70248;BME280;57641;51.416;5.506;2023-06-01T09:40:00;102329.09;;;21.80;40.04
70248;BME280;57641;51.416;5.506;2023-06-01T09:42:33;102329.16;;;21.51;41.01
70248;BME280;57641;51.416;5.506;2023-06-01T09:45:22;102318.75;;;21.55;39.69
70248;BME280;57641;51.416;5.506;2023-06-01T09:47:50;102319.19;;;21.73;40.37
70248;BME280;57641;51.416;5.506;2023-06-01T09:50:36;102315.91;;;21.77;39.58
70248;BME280;57641;51.416;5.506;2023-06-01T09:53:04;102308.56;;;21.57;40.64
70248;BME280;57641;51.416;5.506;2023-06-01T09:55:30;102313.72;;;21.37;41.78
70248;BME280;57641;51.416;5.506;2023-06-01T09:58:21;102317.47;;;21.36;40.93
70248;BME280;57641;51.416;5.506;2023-06-01T10:00:48;102312.31;;;21.41;41.14
70248;BME280;57641;51.416;5.506;2023-06-01T10:03:15;102323.00;;;21.78;40.63
70248;BME280;57641;51.416;5.506;2023-06-01T10:05:44;102312.19;;;22.00;40.06
70248;BME280;57641;51.416;5.506;2023-06-01T10:08:15;102321.34;;;22.13;39.78
70248;BME280;57641;51.416;5.506;2023-06-01T10:10:44;102316.66;;;22.07;39.41
70248;BME280;57641;51.416;5.506;2023-06-01T10:13:10;102311.63;;;22.04;39.85
70248;BME280;57641;51.416;5.506;2023-06-01T10:15:36;102315.63;;;21.58;40.16
70248;BME280;57641;51.416;5.506;2023-06-01T10:18:04;102313.31;;;21.55;39.56
70248;BME280;57641;51.416;5.506;2023-06-01T10:20:34;102312.28;;;21.91;39.33
70248;BME280;57641;51.416;5.506;2023-06-01T10:23:01;102308.66;;;21.99;39.25
70248;BME280;57641;51.416;5.506;2023-06-01T10:25:30;102307.41;;;22.44;38.37
70248;BME280;57641;51.416;5.506;2023-06-01T10:28:02;102313.16;;;22.56;38.59
70248;BME280;57641;51.416;5.506;2023-06-01T10:30:29;102297.31;;;22.38;39.56
70248;BME280;57641;51.416;5.506;2023-06-01T10:32:54;102298.31;;;22.30;38.77
70248;BME280;57641;51.416;5.506;2023-06-01T10:40:39;102289.53;;;22.56;38.45
70248;BME280;57641;51.416;5.506;2023-06-01T10:43:05;102287.13;;;22.68;37.95
70248;BME280;57641;51.416;5.506;2023-06-01T10:48:00;102295.34;;;23.09;37.80
70248;BME280;57641;51.416;5.506;2023-06-01T10:50:26;102284.09;;;23.19;37.90
70248;BME280;57641;51.416;5.506;2023-06-01T10:52:53;102298.00;;;23.30;37.81
70248;BME280;57641;51.416;5.506;2023-06-01T10:55:25;102294.47;;;23.36;36.77
70248;BME280;57641;51.416;5.506;2023-06-01T10:57:51;102295.88;;;23.26;36.37
70248;BME280;57641;51.416;5.506;2023-06-01T11:00:40;102300.63;;;23.17;36.60
70248;BME280;57641;51.416;5.506;2023-06-01T11:03:05;102290.78;;;23.50;36.18
70248;BME280;57641;51.416;5.506;2023-06-01T11:05:47;102276.34;;;23.56;36.70
70248;BME280;57641;51.416;5.506;2023-06-01T11:18:45;102274.31;;;23.72;36.60
70248;BME280;57641;51.416;5.506;2023-06-01T11:21:16;102270.56;;;23.86;36.19
70248;BME280;57641;51.416;5.506;2023-06-01T11:23:43;102275.56;;;23.76;36.24
70248;BME280;57641;51.416;5.506;2023-06-01T11:26:13;102274.34;;;23.91;35.82
70248;BME280;57641;51.416;5.506;2023-06-01T11:28:39;102270.13;;;23.82;34.77
70248;BME280;57641;51.416;5.506;2023-06-01T11:31:10;102270.38;;;24.14;35.48
70248;BME280;57641;51.416;5.506;2023-06-01T11:33:38;102266.59;;;24.08;35.29
70248;BME280;57641;51.416;5.506;2023-06-01T11:36:05;102266.81;;;24.07;35.02
70248;BME280;57641;51.416;5.506;2023-06-01T11:38:35;102262.66;;;24.17;35.14
70248;BME280;57641;51.416;5.506;2023-06-01T11:41:02;102258.50;;;24.48;34.64
70248;BME280;57641;51.416;5.506;2023-06-01T11:43:32;102264.38;;;24.31;35.15
70248;BME280;57641;51.416;5.506;2023-06-01T11:46:02;102259.53;;;24.33;34.93
70248;BME280;57641;51.416;5.506;2023-06-01T11:48:28;102262.81;;;23.96;35.59
70248;BME280;57641;51.416;5.506;2023-06-01T11:50:54;102255.72;;;24.54;35.37
70248;BME280;57641;51.416;5.506;2023-06-01T11:53:21;102259.31;;;24.42;33.82
70248;BME280;57641;51.416;5.506;2023-06-01T11:55:55;102255.50;;;24.03;35.03
70248;BME280;57641;51.416;5.506;2023-06-01T11:58:28;102253.03;;;24.41;35.24
70248;BME280;57641;51.416;5.506;2023-06-01T12:00:56;102250.50;;;24.46;35.20
70248;BME280;57641;51.416;5.506;2023-06-01T12:03:22;102241.28;;;24.47;34.33
70248;BME280;57641;51.416;5.506;2023-06-01T12:05:51;102240.00;;;24.43;34.19
70248;BME280;57641;51.416;5.506;2023-06-01T12:08:24;102240.19;;;24.02;34.54
70248;BME280;57641;51.416;5.506;2023-06-01T12:10:51;102233.50;;;24.64;34.49
70248;BME280;57641;51.416;5.506;2023-06-01T12:13:19;102233.00;;;24.87;34.40
70248;BME280;57641;51.416;5.506;2023-06-01T12:15:46;102222.13;;;24.80;33.64
70248;BME280;57641;51.416;5.506;2023-06-01T12:18:14;102233.00;;;24.87;33.36
70248;BME280;57641;51.416;5.506;2023-06-01T12:20:53;102240.19;;;24.74;33.27
70248;BME280;57641;51.416;5.506;2023-06-01T12:23:19;102230.91;;;25.02;33.22
70248;BME280;57641;51.416;5.506;2023-06-01T12:28:17;102234.00;;;25.18;33.40
70248;BME280;57641;51.416;5.506;2023-06-01T12:30:43;102222.94;;;25.45;32.25
70248;BME280;57641;51.416;5.506;2023-06-01T12:33:09;102223.53;;;25.53;32.29
70248;BME280;57641;51.416;5.506;2023-06-01T12:35:54;102223.34;;;25.86;32.02
70248;BME280;57641;51.416;5.506;2023-06-01T12:38:20;102218.81;;;25.74;32.23
70248;BME280;57641;51.416;5.506;2023-06-01T12:40:45;102218.72;;;25.55;33.10
70248;BME280;57641;51.416;5.506;2023-06-01T12:43:18;102214.72;;;25.58;33.04
70248;BME280;57641;51.416;5.506;2023-06-01T12:45:44;102214.53;;;25.02;33.16
70248;BME280;57641;51.416;5.506;2023-06-01T12:48:29;102217.63;;;25.12;33.98
70248;BME280;57641;51.416;5.506;2023-06-01T12:50:57;102217.25;;;25.53;32.56
70248;BME280;57641;51.416;5.506;2023-06-01T12:53:23;102209.47;;;25.56;32.24
70248;BME280;57641;51.416;5.506;2023-06-01T12:55:48;102209.81;;;25.67;32.77
70248;BME280;57641;51.416;5.506;2023-06-01T12:58:13;102221.91;;;25.46;32.30
70248;BME280;57641;51.416;5.506;2023-06-01T13:00:39;102214.34;;;25.48;32.82
70248;BME280;57641;51.416;5.506;2023-06-01T13:03:04;102212.38;;;25.93;32.46
70248;BME280;57641;51.416;5.506;2023-06-01T13:05:30;102212.44;;;26.11;32.16
70248;BME280;57641;51.416;5.506;2023-06-01T13:07:56;102213.09;;;26.38;32.14
70248;BME280;57641;51.416;5.506;2023-06-01T13:10:22;102210.81;;;26.53;31.04
70248;BME280;57641;51.416;5.506;2023-06-01T13:12:48;102210.31;;;26.13;31.02
70248;BME280;57641;51.416;5.506;2023-06-01T13:15:13;102203.31;;;26.48;30.82
70248;BME280;57641;51.416;5.506;2023-06-01T13:17:39;102201.19;;;26.69;30.54
70248;BME280;57641;51.416;5.506;2023-06-01T13:20:05;102208.34;;;26.70;30.21
70248;BME280;57641;51.416;5.506;2023-06-01T13:22:32;102207.53;;;26.20;29.84
70248;BME280;57641;51.416;5.506;2023-06-01T13:24:58;102206.09;;;26.42;30.35